Time;durP1;ratioP1;P1;durP2;ratioP2;P2;SDS_P1;SDS_P2;PMS_P1;PMS_P2;Temp;Humidity;BMP_temperature;BMP_pressure;BME280_temperature;BME280_humidity;BME280_pressure;Samples;Min_cycle;Max_cycle;Signal;HPM_P1;HPM_P2
2022/06/04 00:04:38;;;;;;;4.18;2.13;;;;;;;16.49;50.37;100679.19;10171273;29;20417;-76
2022/06/04 00:15:29;;;;;;;6.05;2.53;;;;;;;16.39;50.81;100675.69;10169638;29;20080;-76
2022/06/04 00:20:32;;;;;;;4.93;2.63;;;;;;;16.22;51.65;100662.97;10169375;29;20052;-76
2022/06/04 00:25:37;;;;;;;2.60;2.30;;;;;;;16.17;51.83;100663.41;10170468;29;20415;-76
2022/06/04 00:30:42;;;;;;;4.80;2.40;;;;;;;16.09;52.65;100668.75;10168184;29;20155;-76
2022/06/04 00:35:47;;;;;;;4.78;2.40;;;;;;;16.06;52.69;100655.50;10170212;29;20044;-76
2022/06/04 00:40:54;;;;;;;2.78;2.58;;;;;;;15.97;53.16;100672.69;10169708;29;20466;-76
2022/06/04 00:46:35;;;;;;;4.97;2.67;;;;;;;15.90;53.22;100661.59;10170026;29;20048;-75
2022/06/04 00:51:41;;;;;;;5.82;2.78;;;;;;;15.88;53.83;100686.16;10159949;29;20060;-76
2022/06/04 00:56:50;;;;;;;2.50;2.30;;;;;;;15.73;54.15;100681.38;10169303;29;20099;-76
2022/06/04 01:02:01;;;;;;;4.43;2.85;;;;;;;15.65;54.32;100691.09;10169966;29;20044;-76
2022/06/04 01:07:21;;;;;;;3.72;3.10;;;;;;;15.66;54.93;100679.28;10168986;29;20055;-76
2022/06/04 01:12:47;;;;;;;3.67;2.90;;;;;;;15.55;55.32;100671.38;10169324;29;20040;-76
2022/06/04 01:17:59;;;;;;;3.35;3.05;;;;;;;15.37;55.89;100673.16;10169106;29;20088;-76
2022/06/04 01:23:49;;;;;;;4.63;3.20;;;;;;;15.26;56.36;100683.13;10167511;29;20040;-76
2022/06/04 01:28:57;;;;;;;5.07;3.10;;;;;;;15.19;56.50;100690.13;10168193;29;20052;-76
2022/06/04 01:34:03;;;;;;;6.57;4.05;;;;;;;15.13;57.07;100681.75;10168895;29;20126;-76
2022/06/04 01:39:11;;;;;;;4.30;3.90;;;;;;;14.98;57.32;100678.66;10168352;29;20513;-76
2022/06/04 01:44:20;;;;;;;4.60;3.83;;;;;;;14.97;57.76;100696.72;10167561;29;20084;-76
2022/06/04 01:49:27;;;;;;;7.03;3.88;;;;;;;14.94;57.80;100705.13;10187037;29;20059;-76
2022/06/04 01:54:35;;;;;;;5.95;4.22;;;;;;;14.86;58.00;100706.84;10169298;29;20086;-76
2022/06/04 01:59:43;;;;;;;4.90;3.90;;;;;;;14.86;58.15;100726.63;10174317;29;20143;-76
2022/06/04 02:04:50;;;;;;;4.90;4.38;;;;;;;14.85;58.51;100724.09;10175838;29;20048;-76
2022/06/04 02:09:57;;;;;;;5.10;4.15;;;;;;;14.79;58.74;100726.38;10172904;29;20111;-76
2022/06/04 02:15:04;;;;;;;4.88;4.00;;;;;;;14.85;58.69;100732.19;10175433;29;20092;-76
2022/06/04 02:20:08;;;;;;;4.80;4.40;;;;;;;14.83;58.49;100719.66;10173763;29;20443;-76
2022/06/04 02:25:15;;;;;;;5.13;4.63;;;;;;;14.84;58.72;100725.94;10175066;29;20101;-76
2022/06/04 02:30:20;;;;;;;14.32;4.97;;;;;;;14.75;59.01;100724.09;10173131;29;20056;-76
2022/06/04 02:35:27;;;;;;;4.57;4.10;;;;;;;14.73;59.11;100734.22;10174749;29;20079;-76
2022/06/04 02:40:35;;;;;;;6.57;4.53;;;;;;;14.64;59.66;100738.59;10174193;29;20055;-75
2022/06/04 02:45:42;;;;;;;6.32;4.65;;;;;;;14.63;59.54;100752.28;10174590;29;20044;-75
2022/06/04 02:50:50;;;;;;;6.35;4.70;;;;;;;14.64;59.50;100751.25;10173310;29;20489;-76
2022/06/04 02:55:58;;;;;;;7.30;4.90;;;;;;;14.64;59.69;100745.84;10174222;29;20569;-76
2022/06/04 03:01:05;;;;;;;6.13;5.18;;;;;;;14.49;60.27;100749.00;10173901;29;20048;-76
2022/06/04 03:06:20;;;;;;;5.22;4.72;;;;;;;14.51;60.01;100749.72;10170139;29;20052;-76
2022/06/04 03:11:23;;;;;;;6.85;4.90;;;;;;;14.43;59.90;100752.25;10171379;29;20044;-76
2022/06/04 03:16:35;;;;;;;6.45;5.28;;;;;;;14.32;59.99;100730.75;10173163;29;20096;-76
2022/06/04 03:21:39;;;;;;;7.28;4.90;;;;;;;14.21;60.11;100726.31;10173128;29;20072;-76
2022/06/04 03:26:44;;;;;;;8.23;5.00;;;;;;;14.21;59.95;100734.41;10172517;29;20044;-76
2022/06/04 03:31:48;;;;;;;6.35;4.72;;;;;;;14.14;60.13;100733.25;10172921;29;20041;-76
2022/06/04 03:36:51;;;;;;;6.82;4.72;;;;;;;14.20;59.87;100729.16;10173870;29;20040;-76
2022/06/04 03:41:54;;;;;;;6.80;4.47;;;;;;;14.21;59.84;100739.81;10172214;29;20411;-76
2022/06/04 03:46:58;;;;;;;7.07;4.50;;;;;;;14.23;59.37;100742.38;10171637;29;20124;-76
2022/06/04 03:52:02;;;;;;;4.90;4.30;;;;;;;14.18;59.36;100740.09;10168565;29;20557;-76
2022/06/04 04:02:23;;;;;;;5.22;3.90;;;;;;;14.33;58.58;100730.59;10171160;29;20067;-76
2022/06/04 04:07:27;;;;;;;5.57;3.90;;;;;;;14.37;58.30;100732.03;10184517;29;20048;-76
2022/06/04 04:12:30;;;;;;;4.70;4.13;;;;;;;14.35;57.97;100717.78;10171437;29;20040;-76
2022/06/04 04:17:36;;;;;;;3.60;3.30;;;;;;;14.47;57.90;100729.34;10170849;29;20060;-76
2022/06/04 04:22:39;;;;;;;6.60;3.70;;;;;;;14.59;57.28;100721.97;10171182;29;20044;-76
2022/06/04 04:27:42;;;;;;;4.82;4.07;;;;;;;14.61;56.99;100741.59;10170476;29;20541;-76
2022/06/04 04:32:47;;;;;;;5.05;3.80;;;;;;;14.68;56.14;100744.59;10170485;29;20446;-76
2022/06/04 04:37:50;;;;;;;5.85;4.70;;;;;;;14.85;57.01;100746.56;10182404;29;20091;-76
2022/06/04 04:42:53;;;;;;;6.03;3.78;;;;;;;15.05;55.69;100755.50;10170329;29;20060;-76
2022/06/04 04:47:58;;;;;;;3.78;3.47;;;;;;;15.20;55.37;100748.66;10170217;29;20058;-76
2022/06/04 04:53:03;;;;;;;4.68;3.90;;;;;;;15.41;55.69;100748.50;10170532;29;20044;-76
2022/06/04 04:58:07;;;;;;;5.53;3.08;;;;;;;15.57;55.83;100733.47;10169836;29;20108;-76
2022/06/04 05:03:12;;;;;;;8.50;4.80;;;;;;;15.77;54.63;100726.13;10169709;29;20460;-76
2022/06/04 05:08:15;;;;;;;7.43;3.58;;;;;;;15.87;54.42;100735.06;10183822;29;20054;-77
2022/06/04 05:13:17;;;;;;;4.20;3.80;;;;;;;15.92;53.55;100739.00;10170772;29;20040;-77
2022/06/04 05:18:22;;;;;;;6.55;3.88;;;;;;;15.93;52.57;100756.13;10169883;29;20501;-77
2022/06/04 05:23:24;;;;;;;5.65;4.72;;;;;;;15.96;52.49;100773.94;10169969;29;20458;-77
2022/06/04 05:28:27;;;;;;;7.55;4.00;;;;;;;15.99;52.66;100785.34;10168037;29;20044;-77
2022/06/04 05:33:32;;;;;;;5.53;3.85;;;;;;;16.02;52.07;100785.03;10187284;29;20048;-76
2022/06/04 05:38:36;;;;;;;4.22;3.55;;;;;;;16.22;51.49;100790.34;10223147;29;20036;-76
2022/06/04 05:43:40;;;;;;;5.65;3.55;;;;;;;16.40;52.10;100779.56;10205382;29;20126;-77
2022/06/04 05:48:45;;;;;;;3.42;3.08;;;;;;;16.37;51.83;100780.72;10181293;29;20044;-75
2022/06/04 05:53:49;;;;;;;4.20;3.80;;;;;;;16.25;51.03;100785.47;10179111;29;20048;-77
2022/06/04 05:58:53;;;;;;;4.40;3.40;;;;;;;16.12;50.43;100784.97;10178439;29;20107;-77
2022/06/04 06:03:57;;;;;;;4.32;3.92;;;;;;;16.23;50.63;100784.75;10177684;29;20044;-77
2022/06/04 06:09:04;;;;;;;6.60;3.65;;;;;;;16.27;50.21;100797.06;10177563;29;20048;-77
2022/06/04 06:14:08;;;;;;;4.85;3.45;;;;;;;16.20;50.02;100803.19;10176228;29;20048;-77
2022/06/04 06:19:13;;;;;;;5.82;3.58;;;;;;;16.38;49.71;100828.53;10176813;29;20536;-77
2022/06/04 06:24:17;;;;;;;3.88;2.97;;;;;;;16.50;48.76;100837.28;10177102;29;20050;-77
2022/06/04 06:29:23;;;;;;;4.88;3.10;;;;;;;16.63;48.44;100847.78;10176631;29;20048;-77
2022/06/04 06:34:27;;;;;;;3.90;3.30;;;;;;;16.95;48.12;100853.56;10176717;29;20099;-77
2022/06/04 06:39:30;;;;;;;2.90;2.70;;;;;;;17.26;47.12;100853.19;10176094;29;20050;-76
2022/06/04 06:44:33;;;;;;;5.22;3.30;;;;;;;17.42;46.91;100856.03;10176149;29;20615;-77
2022/06/04 06:49:38;;;;;;;3.00;2.72;;;;;;;17.74;46.90;100851.81;10176003;29;20051;-77
2022/06/04 06:54:47;;;;;;;3.67;3.15;;;;;;;17.86;46.10;100852.44;10176040;29;20040;-77
2022/06/04 06:59:50;;;;;;;3.10;2.80;;;;;;;17.93;46.44;100854.31;10170992;29;20433;-77
2022/06/04 07:04:54;;;;;;;3.55;3.05;;;;;;;18.31;45.58;100846.72;10175862;29;20040;-78
2022/06/04 07:09:57;;;;;;;4.57;2.97;;;;;;;18.63;45.15;100849.75;10175248;29;20297;-77
2022/06/04 07:15:00;;;;;;;3.42;3.05;;;;;;;18.71;44.25;100853.31;10172014;29;20044;-77
2022/06/04 07:20:05;;;;;;;3.13;2.80;;;;;;;19.92;42.69;100839.06;10175055;29;20044;-77
2022/06/04 07:25:09;;;;;;;5.43;2.90;;;;;;;21.81;39.48;100836.84;10176243;29;20052;-77
2022/06/04 07:30:12;;;;;;;4.60;2.55;;;;;;;24.18;35.67;100834.25;10176575;29;20095;-78
2022/06/04 07:35:16;;;;;;;2.97;2.67;;;;;;;26.20;32.84;100825.00;10174839;29;20055;-78
2022/06/04 07:40:19;;;;;;;3.10;2.80;;;;;;;27.19;31.56;100815.38;10174306;29;20490;-75
2022/06/04 07:45:22;;;;;;;2.78;2.58;;;;;;;27.02;30.96;100819.75;10174797;29;20040;-79
2022/06/04 07:50:27;;;;;;;2.80;2.60;;;;;;;26.66;32.10;100822.06;10174062;29;20075;-78
2022/06/04 07:55:30;;;;;;;3.13;2.92;;;;;;;25.87;32.44;100825.09;10174803;29;20405;-78
2022/06/04 08:00:37;;;;;;;2.47;2.28;;;;;;;23.73;35.70;100828.28;10171335;29;20048;-78
2022/06/04 08:05:41;;;;;;;4.00;2.95;;;;;;;22.03;39.14;100835.06;10177487;29;20048;-78
2022/06/04 08:10:46;;;;;;;4.20;2.78;;;;;;;21.62;40.38;100840.94;10173947;29;20055;-78
2022/06/04 08:15:49;;;;;;;5.80;3.38;;;;;;;21.94;40.11;100836.22;10173330;29;20040;-78
2022/06/04 08:20:53;;;;;;;3.65;3.15;;;;;;;22.31;38.67;100845.34;10173080;29;20048;-78
2022/06/04 08:25:56;;;;;;;4.45;2.75;;;;;;;22.49;39.03;100836.72;10172862;29;20095;-77
2022/06/04 08:31:06;;;;;;;4.00;3.00;;;;;;;22.09;39.27;100841.66;10168871;29;20442;-78
2022/06/04 08:36:13;;;;;;;3.03;2.55;;;;;;;22.15;38.63;100851.84;10172642;29;20104;-77
2022/06/04 08:41:27;;;;;;;4.03;2.65;;;;;;;22.55;38.41;100856.00;10172303;29;20059;-78
2022/06/04 08:46:33;;;;;;;3.05;2.65;;;;;;;22.68;38.57;100854.44;10171381;29;20055;-78
2022/06/04 08:51:38;;;;;;;5.47;2.75;;;;;;;23.25;37.47;100863.72;10171006;29;20501;-78
2022/06/04 09:02:06;;;;;;;2.70;2.42;;;;;;;23.62;37.00;100868.91;10171329;29;20048;-78
2022/06/04 09:07:14;;;;;;;2.75;2.38;;;;;;;23.96;36.47;100880.97;10170647;29;20571;-79
2022/06/04 09:12:33;;;;;;;2.60;2.38;;;;;;;24.61;36.22;100870.59;10171561;29;20417;-75
2022/06/04 09:17:42;;;;;;;6.13;2.50;;;;;;;24.49;35.31;100888.69;10171473;29;20055;-78
2022/06/04 09:22:48;;;;;;;2.53;2.42;;;;;;;24.43;36.23;100879.38;10168882;29;20056;-78
2022/06/04 09:28:04;;;;;;;4.38;2.70;;;;;;;24.43;36.37;100876.63;10172555;29;20747;-79
2022/06/04 09:33:36;;;;;;;2.97;2.60;;;;;;;24.98;36.03;100876.59;10166652;29;20056;-78
2022/06/04 09:38:41;;;;;;;3.42;2.40;;;;;;;25.15;35.49;100872.47;10170898;29;20052;-78
2022/06/04 09:43:44;;;;;;;2.97;2.65;;;;;;;25.06;35.42;100864.63;10172263;29;20043;-75
2022/06/04 09:48:51;;;;;;;2.75;2.55;;;;;;;25.12;35.57;100872.88;10171349;29;20103;-77
2022/06/04 09:54:02;;;;;;;2.38;2.17;;;;;;;25.76;35.03;100876.94;10171151;29;20044;-75
2022/06/04 09:59:18;;;;;;;3.42;2.50;;;;;;;26.70;33.55;100877.56;10169948;29;20490;-75
2022/06/04 10:04:20;;;;;;;6.00;3.58;;;;;;;27.03;32.54;100868.28;10168529;29;20040;-76
2022/06/04 10:14:58;;;;;;;5.23;2.43;;;;;;;26.76;33.26;100881.34;10170837;29;20096;-75
2022/06/04 10:20:01;;;;;;;2.80;2.45;;;;;;;26.88;33.09;100883.22;10179358;29;20052;-76
2022/06/04 10:25:18;;;;;;;3.08;2.28;;;;;;;26.44;33.05;100884.00;10174399;29;20448;-76
2022/06/04 10:30:25;;;;;;;5.30;2.33;;;;;;;26.58;33.90;100879.31;10175751;29;20051;-77
2022/06/04 10:35:52;;;;;;;3.22;2.90;;;;;;;26.90;33.62;100881.06;10176934;29;20051;-77
2022/06/04 10:41:11;;;;;;;3.88;2.58;;;;;;;27.05;33.29;100882.69;10176175;29;20103;-76
2022/06/04 10:46:31;;;;;;;4.60;3.00;;;;;;;26.95;33.89;100878.50;10175441;29;20046;-77
2022/06/04 10:51:46;;;;;;;3.38;2.08;;;;;;;26.49;32.95;100879.56;10174102;29;20582;-77
2022/06/04 10:56:54;;;;;;;2.60;2.40;;;;;;;26.37;33.97;100884.03;10173758;29;20413;-77
2022/06/04 11:02:03;;;;;;;4.10;3.13;;;;;;;26.48;34.32;100875.09;10175929;29;20055;-77
2022/06/04 11:07:24;;;;;;;4.03;2.90;;;;;;;26.95;34.41;100870.22;10175583;29;20044;-77
2022/06/04 11:12:39;;;;;;;5.15;3.08;;;;;;;27.42;33.88;100880.13;10173710;29;20446;-77
2022/06/04 11:17:47;;;;;;;3.20;2.88;;;;;;;28.11;33.11;100875.47;10175711;29;20044;-78
2022/06/04 11:22:57;;;;;;;24.08;4.63;;;;;;;28.23;32.97;100876.41;10198463;29;20040;-76
2022/06/04 11:28:04;;;;;;;5.55;3.55;;;;;;;28.57;32.61;100874.13;10197049;29;20115;-77
2022/06/04 11:33:20;;;;;;;4.30;3.20;;;;;;;28.17;33.87;100872.66;10177338;29;20044;-77
2022/06/04 11:38:41;;;;;;;10.30;3.65;;;;;;;27.81;34.21;100878.91;10170628;29;20052;-77
2022/06/04 11:44:00;;;;;;;4.07;3.40;;;;;;;27.15;34.86;100878.41;10175898;29;20051;-77
2022/06/04 11:49:16;;;;;;;8.65;3.70;;;;;;;26.15;36.60;100871.59;10173944;29;20048;-77
2022/06/04 11:54:31;;;;;;;4.88;3.45;;;;;;;25.74;36.81;100876.31;10172171;29;20044;-76
2022/06/04 11:59:53;;;;;;;4.35;4.00;;;;;;;25.01;37.71;100880.84;10174787;29;20060;-77
2022/06/04 12:05:07;;;;;;;7.63;3.85;;;;;;;24.83;38.15;100884.19;10174437;29;20047;-77
2022/06/04 12:10:23;;;;;;;4.47;3.35;;;;;;;24.81;38.74;100889.88;10173862;29;20111;-77
2022/06/04 12:15:36;;;;;;;3.78;3.55;;;;;;;24.57;38.55;100882.19;10172233;29;20107;-77
2022/06/04 12:26:04;;;;;;;4.68;3.58;;;;;;;24.46;38.95;100880.88;10173433;29;20490;-77
2022/06/04 12:31:08;;;;;;;3.65;3.28;;;;;;;24.35;38.92;100882.25;10169954;29;20119;-76
2022/06/04 12:36:23;;;;;;;3.92;3.63;;;;;;;24.18;38.92;100870.78;10173397;29;20040;-76
2022/06/04 12:41:39;;;;;;;6.60;3.40;;;;;;;24.83;38.01;100874.03;10173965;29;20040;-76
2022/06/04 12:46:44;;;;;;;7.32;3.60;;;;;;;25.38;37.01;100877.56;10171683;29;20050;-76
2022/06/04 12:51:54;;;;;;;5.05;3.28;;;;;;;25.67;37.13;100878.25;10173213;29;20060;-76
2022/06/04 12:56:59;;;;;;;5.75;3.30;;;;;;;25.53;36.98;100874.59;10172031;29;20407;-77
2022/06/04 13:02:29;;;;;;;4.72;3.50;;;;;;;25.98;36.62;100883.06;10170164;29;20580;-76
2022/06/04 13:07:44;;;;;;;5.63;3.10;;;;;;;26.20;36.63;100880.91;10172469;29;20092;-77
2022/06/04 13:12:59;;;;;;;4.28;3.10;;;;;;;27.10;35.03;100880.97;10171972;29;20048;-77
2022/06/04 13:18:05;;;;;;;3.20;3.00;;;;;;;27.15;35.50;100889.44;10167592;29;20044;-76
2022/06/04 13:23:23;;;;;;;4.65;3.33;;;;;;;28.08;34.04;100875.94;10169749;29;20107;-76
2022/06/04 13:28:33;;;;;;;5.47;3.22;;;;;;;29.50;32.03;100875.53;10168033;29;20040;-76
2022/06/04 13:33:37;;;;;;;3.53;3.13;;;;;;;29.50;31.68;100872.78;10170894;29;20521;-76
2022/06/04 13:38:42;;;;;;;4.40;3.30;;;;;;;29.72;31.08;100879.44;10170089;29;20052;-76
2022/06/04 13:43:48;;;;;;;4.25;3.20;;;;;;;30.01;31.53;100872.09;10170882;29;20072;-76
2022/06/04 13:48:57;;;;;;;6.80;3.38;;;;;;;30.09;31.07;100857.03;10166784;29;20040;-76
2022/06/04 13:54:00;;;;;;;3.33;2.70;;;;;;;29.97;31.68;100861.72;10176393;29;20047;-77
2022/06/04 13:59:03;;;;;;;4.75;2.90;;;;;;;29.76;31.47;100861.28;10175816;29;20044;-76
2022/06/04 14:09:30;;;;;;;3.28;2.97;;;;;;;30.48;30.57;100866.50;10180154;29;20048;-77
2022/06/04 14:14:52;;;;;;;3.90;3.30;;;;;;;30.61;30.91;100864.53;10181969;29;20078;-77
2022/06/04 14:20:18;;;;;;;3.07;2.57;;;;;;;30.76;30.26;100864.84;10181473;29;20052;-77
2022/06/04 14:25:27;;;;;;;3.65;3.05;;;;;;;29.96;29.85;100860.06;10180214;29;20517;-77
2022/06/04 14:30:37;;;;;;;3.42;3.10;;;;;;;30.04;30.35;100859.69;10179283;29;20048;-77
2022/06/04 14:35:41;;;;;;;4.97;3.20;;;;;;;29.80;30.42;100847.78;10180661;29;20051;-77
2022/06/04 14:40:53;;;;;;;3.60;3.00;;;;;;;29.51;30.76;100847.63;10179725;29;20040;-77
2022/06/04 14:46:06;;;;;;;3.72;2.90;;;;;;;29.80;30.36;100836.72;10180210;29;20044;-77
2022/06/04 14:51:49;;;;;;;4.32;2.97;;;;;;;29.85;30.44;100819.38;10178136;29;20079;-77
2022/06/04 14:57:05;;;;;;;6.70;3.50;;;;;;;30.01;29.64;100830.56;10176440;29;20048;-78
2022/06/04 15:02:20;;;;;;;5.65;3.53;;;;;;;29.29;30.59;100833.53;10182883;29;20447;-77
2022/06/04 15:07:41;;;;;;;4.20;3.10;;;;;;;29.31;30.98;100836.88;10177100;29;20045;-77
2022/06/04 15:12:50;;;;;;;3.75;2.92;;;;;;;29.48;30.24;100825.94;10177466;29;20044;-77
2022/06/04 15:18:04;;;;;;;4.40;3.05;;;;;;;29.46;30.70;100819.84;10173857;29;20037;-77
2022/06/04 15:23:22;;;;;;;3.65;2.75;;;;;;;29.44;31.18;100819.22;10176889;29;20566;-77
2022/06/04 15:33:55;;;;;;;3.45;3.15;;;;;;;29.53;30.19;100790.09;10177352;29;20052;-77
2022/06/04 15:39:04;;;;;;;3.38;3.17;;;;;;;29.45;30.64;100797.94;10174072;29;20040;-77
2022/06/04 15:44:10;;;;;;;4.60;3.45;;;;;;;29.48;30.43;100787.22;10176474;29;20127;-77
2022/06/04 15:49:17;;;;;;;5.90;3.05;;;;;;;29.53;30.61;100787.34;10176158;29;20048;-77
2022/06/04 15:59:58;;;;;;;5.47;3.20;;;;;;;29.51;30.41;100783.13;10181105;29;20040;-78
2022/06/04 16:05:05;;;;;;;4.55;3.30;;;;;;;29.41;30.93;100772.69;10173392;29;20044;-77
2022/06/04 16:10:21;;;;;;;3.50;3.13;;;;;;;29.85;30.44;100773.16;10175960;29;20055;-77
2022/06/04 16:15:32;;;;;;;4.15;3.35;;;;;;;30.20;30.27;100773.09;10173919;29;20047;-77
2022/06/04 16:20:42;;;;;;;3.30;3.10;;;;;;;30.52;29.48;100775.38;10174446;29;20059;-77
2022/06/04 16:25:52;;;;;;;4.60;2.95;;;;;;;30.20;29.55;100770.31;10174722;29;20509;-77
2022/06/04 16:31:22;;;;;;;3.03;2.90;;;;;;;30.73;28.18;100771.09;10173393;29;20115;-77
2022/06/04 16:36:46;;;;;;;4.03;3.38;;;;;;;33.00;26.15;100768.41;10174698;29;20461;-77
2022/06/04 16:42:09;;;;;;;4.75;3.47;;;;;;;36.10;23.96;100757.44;10174070;29;20048;-77
2022/06/04 16:47:21;;;;;;;5.25;3.17;;;;;;;37.62;22.30;100764.97;10173929;29;20387;-77
2022/06/04 16:52:26;;;;;;;4.10;3.10;;;;;;;38.57;21.05;100754.84;10187065;29;20064;-77
2022/06/04 16:57:30;;;;;;;6.28;3.20;;;;;;;37.45;21.88;100762.66;10191009;29;20066;-78
2022/06/04 17:03:09;;;;;;;4.15;2.85;;;;;;;36.27;22.55;100759.88;10177119;29;20494;-78
2022/06/04 17:08:28;;;;;;;5.75;3.05;;;;;;;36.46;22.41;100746.91;10174137;29;20052;-78
2022/06/04 17:13:44;;;;;;;2.78;2.58;;;;;;;37.03;21.85;100750.16;10179718;29;20076;-77
2022/06/04 17:19:12;;;;;;;3.75;2.78;;;;;;;37.82;21.86;100758.31;10177487;29;20063;-77
2022/06/04 17:24:25;;;;;;;3.28;2.80;;;;;;;36.56;22.26;100759.97;10175246;29;20040;-77
2022/06/04 17:29:47;;;;;;;3.50;3.22;;;;;;;36.65;22.26;100766.66;10178778;29;20052;-75
2022/06/04 17:35:14;;;;;;;3.50;3.15;;;;;;;36.43;22.10;100763.47;10180649;29;20509;-78
2022/06/04 17:40:26;;;;;;;3.53;2.55;;;;;;;35.32;23.11;100766.28;10176991;29;20044;-77
2022/06/04 17:45:31;;;;;;;3.17;2.88;;;;;;;34.63;24.48;100769.31;10178195;29;20171;-77
2022/06/04 17:50:35;;;;;;;5.20;3.05;;;;;;;31.78;26.42;100777.81;10178047;29;20059;-77
2022/06/04 17:55:40;;;;;;;3.13;2.92;;;;;;;28.75;30.83;100771.81;10177948;29;20040;-77
2022/06/04 18:00:45;;;;;;;4.32;3.22;;;;;;;27.16;33.05;100766.19;10175839;29;20044;-77
2022/06/04 18:05:50;;;;;;;4.07;3.67;;;;;;;26.26;35.14;100782.84;10177719;29;20055;-77
2022/06/04 18:10:53;;;;;;;4.53;4.07;;;;;;;25.41;36.08;100785.53;10177093;29;20052;-77
2022/06/04 18:15:57;;;;;;;4.65;4.00;;;;;;;25.01;36.86;100791.00;10176818;29;20463;-77
2022/06/04 18:21:00;;;;;;;4.97;3.67;;;;;;;24.62;37.86;100798.13;10176567;29;20048;-77
2022/06/04 18:26:05;;;;;;;3.65;3.35;;;;;;;24.27;38.41;100800.09;10176834;29;20047;-77
2022/06/04 18:31:14;;;;;;;3.65;3.35;;;;;;;24.16;39.06;100795.19;10176204;29;20413;-76
2022/06/04 18:36:17;;;;;;;4.43;4.03;;;;;;;23.99;39.27;100794.69;10176159;29;20510;-77
2022/06/04 18:41:23;;;;;;;4.45;3.83;;;;;;;23.76;39.71;100800.44;10173764;29;20155;-76
2022/06/04 18:57:13;;;;;;;4.10;3.80;;;;;;;23.41;41.67;100808.63;10176897;29;20055;-75
2022/06/04 19:02:20;;;;;;;4.60;4.15;;;;;;;23.15;42.31;100801.03;10223828;23;20161;-79
2022/06/04 19:18:05;;;;;;;5.70;3.88;;;;;;;22.57;43.99;100809.25;10220732;29;20044;-79
2022/06/04 19:28:30;;;;;;;4.60;3.90;;;;;;;22.16;44.99;100807.06;10220233;29;20120;-80
2022/06/04 19:33:34;;;;;;;7.72;4.15;;;;;;;21.98;45.94;100812.06;10220613;29;20044;-80
2022/06/04 19:38:37;;;;;;;4.07;3.65;;;;;;;21.83;46.54;100826.59;10220961;29;20040;-80
2022/06/04 19:43:42;;;;;;;6.78;4.03;;;;;;;21.69;46.66;100830.09;10131783;28;20506;-80
2022/06/04 19:48:46;;;;;;;5.38;4.32;;;;;;;21.54;46.71;100821.91;10219904;29;20044;-80
2022/06/04 19:59:10;;;;;;;5.28;4.40;;;;;;;21.18;45.31;100841.69;10218245;29;20048;-78
2022/06/04 20:04:14;;;;;;;6.90;3.92;;;;;;;21.05;45.08;100843.31;10220770;29;20079;-80
2022/06/04 20:09:17;;;;;;;6.50;3.97;;;;;;;21.01;45.30;100840.94;10218412;29;20050;-80
2022/06/04 20:14:21;;;;;;;4.72;4.03;;;;;;;20.86;44.54;100844.63;10220339;29;20485;-80
2022/06/04 20:19:25;;;;;;;3.80;3.50;;;;;;;20.60;45.15;100840.34;10219584;29;20051;-80
2022/06/04 20:24:29;;;;;;;5.65;3.42;;;;;;;20.52;44.60;100835.78;10216929;29;20521;-79
2022/06/04 20:29:31;;;;;;;3.92;3.63;;;;;;;20.45;44.65;100839.41;10226537;29;20047;-78
2022/06/04 20:34:36;;;;;;;5.25;4.10;;;;;;;20.29;45.33;100824.75;10224642;29;20047;-79
2022/06/04 20:39:40;;;;;;;4.32;3.92;;;;;;;20.18;44.52;100827.03;10228076;29;20042;-78
2022/06/04 20:44:43;;;;;;;7.07;5.00;;;;;;;20.08;46.44;100825.38;10224504;29;20150;-80
2022/06/04 20:49:48;;;;;;;5.10;4.70;;;;;;;19.98;48.74;100830.19;10225973;29;20055;-79
2022/06/04 20:54:51;;;;;;;6.53;5.45;;;;;;;19.88;49.30;100824.06;10218617;29;20048;-79
2022/06/04 20:59:54;;;;;;;4.20;3.85;;;;;;;19.82;47.96;100825.63;10225955;29;20058;-78
2022/06/04 21:04:58;;;;;;;5.50;3.85;;;;;;;19.64;47.29;100820.41;10230134;29;20076;-77
2022/06/04 21:10:01;;;;;;;5.70;3.80;;;;;;;19.58;47.17;100823.81;10231598;29;20043;-78
2022/06/04 21:15:06;;;;;;;4.50;4.07;;;;;;;19.51;47.93;100832.81;10232005;29;20047;-77
2022/06/04 21:20:17;;;;;;;6.20;3.95;;;;;;;19.35;48.20;100841.84;10232552;29;20489;-78
2022/06/04 21:25:22;;;;;;;5.38;4.00;;;;;;;19.28;48.02;100829.91;10233379;29;20131;-78
2022/06/04 21:30:25;;;;;;;4.68;3.78;;;;;;;19.19;47.90;100832.66;10233642;29;20055;-77
2022/06/04 21:40:50;;;;;;;5.22;4.72;;;;;;;18.99;48.82;100839.47;10234140;29;20556;-77
2022/06/04 21:45:54;;;;;;;6.10;5.40;;;;;;;18.88;48.76;100839.78;10234641;29;20048;-78
2022/06/04 21:51:00;;;;;;;6.25;5.65;;;;;;;18.77;48.91;100830.03;10234619;29;20464;-80
2022/06/04 21:56:03;;;;;;;5.95;5.38;;;;;;;18.69;49.46;100833.59;10237186;29;20060;-77
2022/06/04 22:01:20;;;;;;;7.47;5.80;;;;;;;18.55;49.93;100824.19;10236373;29;20442;-78
2022/06/04 22:06:24;;;;;;;8.93;5.30;;;;;;;18.48;50.01;100820.44;10234803;29;20501;-77
2022/06/04 22:11:27;;;;;;;7.50;5.32;;;;;;;18.48;50.08;100811.41;10238796;29;20114;-78
2022/06/04 22:16:32;;;;;;;5.60;5.05;;;;;;;18.39;49.57;100820.59;10241969;29;20047;-78
2022/06/04 22:21:36;;;;;;;5.75;5.25;;;;;;;18.33;49.23;100803.91;10244654;29;20039;-77
2022/06/04 22:26:39;;;;;;;6.22;5.20;;;;;;;18.34;48.91;100800.16;10244985;29;20051;-77
2022/06/04 22:31:42;;;;;;;8.02;4.78;;;;;;;18.24;49.03;100795.88;10245151;29;20066;-78
2022/06/04 22:36:47;;;;;;;5.88;4.75;;;;;;;18.18;49.10;100796.53;10243579;29;20056;-77
2022/06/04 22:41:50;;;;;;;6.00;4.28;;;;;;;18.02;49.84;100794.59;10238119;29;20046;-78
2022/06/04 22:46:53;;;;;;;5.07;4.15;;;;;;;18.00;49.63;100800.22;10240847;29;20051;-78
2022/06/04 22:51:58;;;;;;;4.53;4.07;;;;;;;17.99;50.41;100798.53;10233663;29;20047;-80
2022/06/04 22:57:03;;;;;;;5.80;4.22;;;;;;;17.86;51.12;100798.94;10221037;29;20103;-82
2022/06/04 23:02:07;;;;;;;5.82;4.15;;;;;;;17.76;51.03;100806.34;10210319;29;20040;-81
2022/06/04 23:07:11;;;;;;;5.97;4.28;;;;;;;17.69;51.09;100800.72;10225604;29;20047;-79
2022/06/04 23:23:07;;;;;;;5.78;3.90;;;;;;;17.48;50.98;100803.78;10218748;29;20063;-79
2022/06/04 23:28:12;;;;;;;4.43;4.03;;;;;;;17.49;51.23;100801.91;10220480;29;20051;-80
2022/06/04 23:33:16;;;;;;;4.35;3.95;;;;;;;17.42;51.76;100790.00;10217944;29;20044;-81
2022/06/04 23:38:21;;;;;;;4.55;3.88;;;;;;;17.29;51.82;100782.28;10239551;29;20039;-80
2022/06/04 23:43:24;;;;;;;5.75;3.90;;;;;;;17.15;52.05;100778.28;10220050;29;20048;-80
2022/06/04 23:48:27;;;;;;;5.03;4.38;;;;;;;17.16;51.63;100779.97;10216005;29;20050;-80
2022/06/04 23:53:31;;;;;;;5.10;4.25;;;;;;;17.17;51.38;100776.25;10214613;29;20184;-79
2022/06/04 23:58:35;;;;;;;6.60;4.82;;;;;;;17.00;51.68;100772.53;10214485;29;20048;-79
